Time,TemperatureF,DewpointF,PressureIn,WindDirection,WindDirectionDegrees,WindSpeedMPH,WindSpeedGustMPH,Humidity,HourlyPrecipIn,Conditions,Clouds,dailyrainin,SoftwareType,DateUTC
2013-07-31 00:12:00,57.0,53.0,30.07,SSW,201,0.0,-999.0,87,-99.99,,,0.00,weatherlink.com 1.10,2013-07-31 07:12:00,
2013-07-31 00:28:00,57.0,53.0,30.06,SW,236,0.0,-999.0,87,-99.99,,,0.00,weatherlink.com 1.10,2013-07-31 07:28:00,
2013-07-31 00:45:00,56.9,53.0,30.06,WSW,240,0.0,-999.0,87,-99.99,,,0.00,weatherlink.com 1.10,2013-07-31 07:45:00,
2013-07-31 01:01:00,57.0,53.0,30.06,West,259,1.0,-999.0,87,-99.99,,,0.00,weatherlink.com 1.10,2013-07-31 08:01:00,
2013-07-31 01:18:00,57.0,53.0,30.06,WSW,242,3.0,-999.0,87,-99.99,,,0.00,weatherlink.com 1.10,2013-07-31 08:18:00,
2013-07-31 01:34:00,56.7,53.0,30.06,WNW,285,0.0,-999.0,87,-99.99,,,0.00,weatherlink.com 1.10,2013-07-31 08:34:00,
2013-07-31 01:51:00,56.9,53.0,30.06,West,267,0.0,-999.0,87,-99.99,,,0.00,weatherlink.com 1.10,2013-07-31 08:51:00,
2013-07-31 02:07:00,57.0,53.0,30.05,WSW,242,1.0,-999.0,87,-99.99,,,0.00,weatherlink.com 1.10,2013-07-31 09:07:00,
2013-07-31 02:24:00,56.9,53.0,30.05,SW,221,0.0,-999.0,87,-99.99,,,0.00,weatherlink.com 1.10,2013-07-31 09:24:00,
2013-07-31 02:40:00,56.9,53.0,30.05,West,263,0.0,-999.0,87,-99.99,,,0.00,weatherlink.com 1.10,2013-07-31 09:40:00,
2013-07-31 02:57:00,56.9,53.0,30.05,West,272,0.0,-999.0,88,-99.99,,,0.00,weatherlink.com 1.10,2013-07-31 09:57:00,
2013-07-31 03:13:00,56.6,53.0,30.05,SW,222,0.0,-999.0,88,-99.99,,,0.00,weatherlink.com 1.10,2013-07-31 10:13:00,
2013-07-31 03:29:00,56.5,53.0,30.05,WSW,256,0.0,-999.0,88,-99.99,,,0.00,weatherlink.com 1.10,2013-07-31 10:29:00,
2013-07-31 03:46:00,56.5,53.0,30.05,WSW,256,0.0,-999.0,88,-99.99,,,0.00,weatherlink.com 1.10,2013-07-31 10:46:00,
2013-07-31 04:02:00,56.5,53.0,30.05,WSW,256,0.0,-999.0,88,-99.99,,,0.00,weatherlink.com 1.10,2013-07-31 11:02:00,
2013-07-31 04:19:00,56.3,53.0,30.05,West,262,0.0,-999.0,87,-99.99,,,0.00,weatherlink.com 1.10,2013-07-31 11:19:00,
2013-07-31 04:35:00,56.5,53.0,30.05,West,262,0.0,-999.0,87,-99.99,,,0.00,weatherlink.com 1.10,2013-07-31 11:35:00,
2013-07-31 04:52:00,56.6,53.0,30.04,West,262,0.0,-999.0,87,-99.99,,,0.00,weatherlink.com 1.10,2013-07-31 11:52:00,
2013-07-31 05:08:00,56.6,53.0,30.04,West,262,0.0,-999.0,87,-99.99,,,0.00,weatherlink.com 1.10,2013-07-31 12:08:00,
2013-07-31 05:25:00,56.6,53.0,30.04,West,262,0.0,-999.0,87,-99.99,,,0.00,weatherlink.com 1.10,2013-07-31 12:25:00,
2013-07-31 05:41:00,56.3,53.0,30.05,West,262,0.0,-999.0,87,-99.99,,,0.00,weatherlink.com 1.10,2013-07-31 12:41:00,
2013-07-31 05:57:00,56.2,52.0,30.05,West,262,0.0,-999.0,87,-99.99,,,0.00,weatherlink.com 1.10,2013-07-31 12:57:00,
2013-07-31 06:14:00,56.3,53.0,30.05,West,262,0.0,-999.0,87,-99.99,,,0.00,weatherlink.com 1.10,2013-07-31 13:14:00,
2013-07-31 06:30:00,56.2,52.0,30.05,West,262,0.0,-999.0,87,-99.99,,,0.00,weatherlink.com 1.10,2013-07-31 13:30:00,
2013-07-31 06:47:00,56.2,52.0,30.05,SW,234,0.0,-999.0,87,-99.99,,,0.00,weatherlink.com 1.10,2013-07-31 13:47:00,
2013-07-31 07:02:00,56.3,52.0,30.06,West,265,0.0,-999.0,86,-99.99,,,0.00,weatherlink.com 1.10,2013-07-31 14:02:00,
2013-07-31 07:19:00,56.3,52.0,30.06,West,265,3.0,-999.0,86,-99.99,,,0.00,weatherlink.com 1.10,2013-07-31 14:19:00,
2013-07-31 07:35:00,56.5,52.0,30.06,West,265,0.0,-999.0,86,-99.99,,,0.00,weatherlink.com 1.10,2013-07-31 14:35:00,
2013-07-31 07:52:00,56.6,53.0,30.06,WSW,246,0.0,-999.0,86,-99.99,,,0.00,weatherlink.com 1.10,2013-07-31 14:52:00,
2013-07-31 08:00:00,56.7,52.2,30.06,WSW,248,1.0,6.0,85,0.00,,---,0.00,VWS V14.01,2013-07-31 15:00:00,
2013-07-31 08:08:00,56.7,52.0,30.06,WSW,257,4.0,-999.0,85,-99.99,,,0.00,weatherlink.com 1.10,2013-07-31 15:08:00,
2013-07-31 08:24:00,56.9,53.0,30.07,West,260,0.0,-999.0,85,-99.99,,,0.00,weatherlink.com 1.10,2013-07-31 15:24:00,
2013-07-31 08:41:00,57.3,53.0,30.07,West,266,0.0,-999.0,84,-99.99,,,0.00,weatherlink.com 1.10,2013-07-31 15:41:00,
2013-07-31 08:57:00,57.8,52.0,30.08,SW,221,3.0,-999.0,82,-99.99,,,0.00,weatherlink.com 1.10,2013-07-31 15:57:00,
2013-07-31 09:14:00,58.1,53.0,30.08,West,265,0.0,-999.0,82,-99.99,,,0.00,weatherlink.com 1.10,2013-07-31 16:14:00,
2013-07-31 09:30:00,58.7,53.0,30.08,West,273,0.0,-999.0,81,-99.99,,,0.00,weatherlink.com 1.10,2013-07-31 16:30:00,
2013-07-31 09:46:00,59.3,53.0,30.08,West,260,0.0,-999.0,80,-99.99,,,0.00,weatherlink.com 1.10,2013-07-31 16:46:00,
2013-07-31 10:04:00,59.9,53.0,30.08,West,272,0.0,-999.0,78,-99.99,,,0.00,weatherlink.com 1.10,2013-07-31 17:04:00,
2013-07-31 10:20:00,61.5,54.0,30.07,WSW,258,5.0,-999.0,75,-99.99,,,0.00,weatherlink.com 1.10,2013-07-31 17:20:00,
2013-07-31 10:36:00,62.9,54.0,30.07,WNW,292,0.0,-999.0,72,-99.99,,,0.00,weatherlink.com 1.10,2013-07-31 17:36:00,
2013-07-31 10:53:00,65.5,55.0,30.07,NW,306,0.0,-999.0,68,-99.99,,,0.00,weatherlink.com 1.10,2013-07-31 17:53:00,
2013-07-31 11:09:00,66.3,55.0,30.07,SSW,203,0.0,-999.0,66,-99.99,,,0.00,weatherlink.com 1.10,2013-07-31 18:09:00,
2013-07-31 11:26:00,66.8,55.0,30.07,West,267,2.0,-999.0,66,-99.99,,,0.00,weatherlink.com 1.10,2013-07-31 18:26:00,
2013-07-31 11:42:00,67.3,55.0,30.07,WSW,258,3.0,-999.0,64,-99.99,,,0.00,weatherlink.com 1.10,2013-07-31 18:42:00,
2013-07-31 11:59:00,67.3,55.0,30.07,NW,304,0.0,-999.0,64,-99.99,,,0.00,weatherlink.com 1.10,2013-07-31 18:59:00,
2013-07-31 12:15:00,67.1,55.0,30.06,West,277,6.0,-999.0,65,-99.99,,,0.00,weatherlink.com 1.10,2013-07-31 19:15:00,
2013-07-31 12:32:00,67.4,55.0,30.06,West,272,0.0,-999.0,64,-99.99,,,0.00,weatherlink.com 1.10,2013-07-31 19:32:00,
2013-07-31 12:48:00,68.6,55.0,30.06,SSE,168,0.0,-999.0,62,-99.99,,,0.00,weatherlink.com 1.10,2013-07-31 19:48:00,
2013-07-31 13:05:00,66.9,55.0,30.06,West,281,7.0,-999.0,65,-99.99,,,0.00,weatherlink.com 1.10,2013-07-31 20:05:00,
2013-07-31 13:20:00,68.3,55.0,30.05,SW,214,0.0,-999.0,62,-99.99,,,0.00,weatherlink.com 1.10,2013-07-31 20:20:00,
2013-07-31 13:37:00,68.1,55.0,30.05,West,271,1.0,-999.0,63,-99.99,,,0.00,weatherlink.com 1.10,2013-07-31 20:37:00,
2013-07-31 13:53:00,69.6,56.0,30.05,West,273,0.0,-999.0,62,-99.99,,,0.00,weatherlink.com 1.10,2013-07-31 20:53:00,
2013-07-31 14:10:00,68.8,56.0,30.05,WSW,240,6.0,-999.0,64,-99.99,,,0.00,weatherlink.com 1.10,2013-07-31 21:10:00,
2013-07-31 14:27:00,67.8,56.0,30.05,SW,236,2.0,-999.0,65,-99.99,,,0.00,weatherlink.com 1.10,2013-07-31 21:27:00,
2013-07-31 14:42:00,67.1,55.0,30.05,WSW,258,2.0,-999.0,65,-99.99,,,0.00,weatherlink.com 1.10,2013-07-31 21:42:00,
2013-07-31 14:59:00,66.4,55.0,30.05,West,281,5.0,-999.0,67,-99.99,,,0.00,weatherlink.com 1.10,2013-07-31 21:59:00,
2013-07-31 15:15:00,66.3,56.0,30.05,West,270,4.0,-999.0,69,-99.99,,,0.00,weatherlink.com 1.10,2013-07-31 22:15:00,
2013-07-31 15:31:00,66.8,55.0,30.05,WNW,289,4.0,-999.0,67,-99.99,,,0.00,weatherlink.com 1.10,2013-07-31 22:31:00,
2013-07-31 15:49:00,66.0,55.0,30.05,SSW,205,0.0,-999.0,67,-99.99,,,0.00,weatherlink.com 1.10,2013-07-31 22:49:00,
2013-07-31 16:05:00,65.8,55.0,30.04,WSW,255,0.0,-999.0,68,-99.99,,,0.00,weatherlink.com 1.10,2013-07-31 23:05:00,
2013-07-31 16:21:00,65.0,55.0,30.04,WNW,292,0.0,-999.0,71,-99.99,,,0.00,weatherlink.com 1.10,2013-07-31 23:21:00,
2013-07-31 16:37:00,62.7,55.0,30.04,WSW,258,0.0,-999.0,75,-99.99,,,0.00,weatherlink.com 1.10,2013-07-31 23:37:00,
2013-07-31 16:54:00,63.1,55.0,30.03,SW,226,1.0,-999.0,74,-99.99,,,0.00,weatherlink.com 1.10,2013-07-31 23:54:00,
2013-07-31 17:10:00,63.1,55.0,30.03,WSW,244,2.0,-999.0,74,-99.99,,,0.00,weatherlink.com 1.10,2013-08-01 00:10:00,
2013-07-31 17:27:00,63.5,55.0,30.03,WSW,256,0.0,-999.0,73,-99.99,,,0.00,weatherlink.com 1.10,2013-08-01 00:27:00,
2013-07-31 17:43:00,63.1,55.0,30.03,WSW,256,0.0,-999.0,74,-99.99,,,0.00,weatherlink.com 1.10,2013-08-01 00:43:00,
2013-07-31 18:00:00,62.9,55.0,30.02,WSW,251,8.0,-999.0,74,-99.99,,,0.00,weatherlink.com 1.10,2013-08-01 01:00:00,
2013-07-31 18:16:00,62.1,54.0,30.02,WSW,248,0.0,-999.0,76,-99.99,,,0.00,weatherlink.com 1.10,2013-08-01 01:16:00,
2013-07-31 18:33:00,61.5,54.0,30.02,WSW,245,6.0,-999.0,77,-99.99,,,0.00,weatherlink.com 1.10,2013-08-01 01:33:00,
2013-07-31 18:49:00,60.9,54.0,30.02,WSW,257,0.0,-999.0,78,-99.99,,,0.00,weatherlink.com 1.10,2013-08-01 01:49:00,
2013-07-31 19:05:00,60.4,54.0,30.02,SW,229,6.0,-999.0,79,-99.99,,,0.00,weatherlink.com 1.10,2013-08-01 02:05:00,
2013-07-31 19:22:00,59.9,54.0,30.02,SW,234,0.0,-999.0,80,-99.99,,,0.00,weatherlink.com 1.10,2013-08-01 02:22:00,
2013-07-31 19:38:00,59.8,54.0,30.02,WSW,240,4.0,-999.0,80,-99.99,,,0.00,weatherlink.com 1.10,2013-08-01 02:38:00,
2013-07-31 19:54:00,59.3,54.0,30.02,SSW,194,0.0,-999.0,81,-99.99,,,0.00,weatherlink.com 1.10,2013-08-01 02:54:00,
2013-07-31 20:00:00,59.2,53.7,30.02,SSW,202,0.0,6.0,82,0.00,,---,0.00,VWS V14.01,2013-08-01 03:00:00,
2013-07-31 20:11:00,58.9,53.0,30.02,West,273,0.0,-999.0,82,-99.99,,,0.00,weatherlink.com 1.10,2013-08-01 03:11:00,
2013-07-31 20:28:00,58.4,53.0,30.02,WNW,296,0.0,-999.0,83,-99.99,,,0.00,weatherlink.com 1.10,2013-08-01 03:28:00,
2013-07-31 20:47:00,56.7,52.2,30.06,WSW,248,1.0,6.0,85,0.00,,---,0.00,VWS V14.01,2013-08-01 03:47:00,
2013-07-31 20:52:00,58.0,53.2,30.02,East,81,0.0,5.0,84,0.00,,---,0.00,VWS V14.01,2013-08-01 03:52:00,
2013-07-31 20:57:00,57.8,53.3,30.02,SSE,163,1.0,5.0,85,0.00,,---,0.00,VWS V14.01,2013-08-01 03:57:00,
2013-07-31 21:01:00,59.2,53.7,30.02,SSW,202,0.0,6.0,82,0.00,,---,0.00,VWS V14.01,2013-08-01 04:01:00,
2013-07-31 21:02:00,57.6,53.1,30.02,South,178,0.0,0.0,85,0.01,,---,0.00,VWS V14.01,2013-08-01 04:02:00,
2013-07-31 21:03:00,57.6,53.1,30.02,SSE,155,0.0,2.0,85,0.01,,---,0.00,VWS V14.01,2013-08-01 04:03:00,
2013-07-31 21:12:00,57.5,53.0,30.02,SSE,164,0.0,0.0,85,0.00,,---,0.00,VWS V14.01,2013-08-01 04:12:00,
2013-07-31 21:17:00,57.5,53.3,30.02,SE,128,0.0,5.0,86,0.01,,---,0.00,VWS V14.01,2013-08-01 04:17:00,
2013-07-31 21:22:00,57.5,53.3,30.02,SSW,213,1.0,5.0,86,0.01,,---,0.00,VWS V14.01,2013-08-01 04:22:00,
2013-07-31 21:27:00,57.3,53.2,30.02,East,92,0.0,6.0,86,0.01,,---,0.00,VWS V14.01,2013-08-01 04:27:00,
2013-07-31 21:32:00,57.3,53.2,30.02,SE,128,0.0,6.0,86,0.01,,---,0.00,VWS V14.01,2013-08-01 04:32:00,
2013-07-31 21:37:00,57.2,53.1,30.03,South,186,0.0,1.0,86,0.00,,---,0.00,VWS V14.01,2013-08-01 04:37:00,
2013-07-31 21:42:00,57.2,53.1,30.03,South,169,0.0,1.0,86,0.00,,---,0.00,VWS V14.01,2013-08-01 04:42:00,
2013-07-31 21:47:00,57.2,53.1,30.03,South,187,0.0,6.0,86,0.00,,---,0.00,VWS V14.01,2013-08-01 04:47:00,
2013-07-31 21:52:00,57.0,52.9,30.02,ENE,74,0.0,6.0,86,0.00,,---,0.00,VWS V14.01,2013-08-01 04:52:00,
2013-07-31 21:57:00,57.0,52.9,30.02,South,189,0.0,6.0,86,0.00,,---,0.00,VWS V14.01,2013-08-01 04:57:00,
2013-07-31 22:02:00,56.9,52.8,30.02,SSW,202,0.0,6.0,86,0.00,,---,0.00,VWS V14.01,2013-08-01 05:02:00,
2013-07-31 22:07:00,56.9,53.1,30.03,SSE,164,0.0,1.0,87,0.00,,---,0.00,VWS V14.01,2013-08-01 05:07:00,
2013-07-31 22:12:00,56.9,53.1,30.03,SE,138,0.0,3.0,87,0.00,,---,0.00,VWS V14.01,2013-08-01 05:12:00,
2013-07-31 22:17:00,56.7,52.9,30.03,SSE,155,2.0,6.0,87,0.00,,---,0.00,VWS V14.01,2013-08-01 05:17:00,
2013-07-31 22:22:00,56.7,53.2,30.03,South,186,0.0,6.0,88,0.00,,---,0.00,VWS V14.01,2013-08-01 05:22:00,
2013-07-31 22:27:00,56.6,53.1,30.03,South,190,0.0,6.0,88,0.00,,---,0.00,VWS V14.01,2013-08-01 05:27:00,
2013-07-31 22:32:00,56.6,53.1,30.03,SSW,198,0.0,7.0,88,0.00,,---,0.00,VWS V14.01,2013-08-01 05:32:00,
2013-07-31 22:37:00,56.6,53.1,30.03,South,186,0.0,0.0,88,0.00,,---,0.00,VWS V14.01,2013-08-01 05:37:00,
2013-07-31 22:42:00,56.6,53.1,30.03,SE,127,0.0,6.0,88,0.00,,---,0.00,VWS V14.01,2013-08-01 05:42:00,
2013-07-31 22:47:00,56.5,53.0,30.03,SSE,150,0.0,6.0,88,0.00,,---,0.00,VWS V14.01,2013-08-01 05:47:00,
2013-07-31 22:52:00,56.5,53.0,30.03,SW,223,0.0,6.0,88,0.00,,---,0.00,VWS V14.01,2013-08-01 05:52:00,
2013-07-31 22:57:00,56.3,52.8,30.03,SSW,192,0.0,6.0,88,0.00,,---,0.00,VWS V14.01,2013-08-01 05:57:00,
2013-07-31 23:03:00,56.3,52.8,30.03,SSW,196,0.0,6.0,88,0.00,,---,0.00,VWS V14.01,2013-08-01 06:03:00,
2013-07-31 23:08:00,56.2,53.0,30.03,East,90,0.0,0.0,89,0.00,,---,0.00,VWS V14.01,2013-08-01 06:08:00,
2013-07-31 23:13:00,56.2,52.7,30.03,East,90,0.0,0.0,88,0.00,,---,0.00,VWS V14.01,2013-08-01 06:13:00,
2013-07-31 23:18:00,56.2,53.0,30.03,East,90,0.0,0.0,89,0.00,,---,0.00,VWS V14.01,2013-08-01 06:18:00,
2013-07-31 23:23:00,56.2,53.0,30.03,NW,306,0.0,2.0,89,0.00,,---,0.00,VWS V14.01,2013-08-01 06:23:00,
2013-07-31 23:28:00,56.0,52.8,30.03,SW,231,0.0,2.0,89,0.00,,---,0.00,VWS V14.01,2013-08-01 06:28:00,
2013-07-31 23:33:00,55.9,52.7,30.03,SW,231,0.0,2.0,89,0.00,,---,0.00,VWS V14.01,2013-08-01 06:33:00,
2013-07-31 23:38:00,55.9,52.7,30.03,SW,230,0.0,0.0,89,0.00,,---,0.00,VWS V14.01,2013-08-01 06:38:00,
2013-07-31 23:43:00,55.9,52.7,30.03,SE,129,0.0,5.0,89,0.00,,---,0.00,VWS V14.01,2013-08-01 06:43:00,
2013-07-31 23:48:00,55.9,52.7,30.03,South,188,0.0,5.0,89,0.00,,---,0.00,VWS V14.01,2013-08-01 06:48:00,
2013-07-31 23:53:00,55.9,52.7,30.02,ENE,68,0.0,5.0,89,0.00,,---,0.00,VWS V14.01,2013-08-01 06:53:00,
2013-07-31 23:58:00,55.9,52.7,30.02,SE,137,0.0,5.0,89,0.00,,---,0.00,VWS V14.01,2013-08-01 06:58:00,